sensor_id;sensor_type;location;lat;lon;timestamp;P1;durP1;ratioP1;P2;durP2;ratioP2
76069;SDS011;64768;51.738;5.852;2023-02-11T00:06:10;26.17;;;10.63;;
76069;SDS011;64768;51.738;5.852;2023-02-11T00:18:47;13.32;;;6.97;;
76069;SDS011;64768;51.738;5.852;2023-02-11T00:22:14;20.95;;;9.25;;
76069;SDS011;64768;51.738;5.852;2023-02-11T00:24:55;27.85;;;10.88;;
76069;SDS011;64768;51.738;5.852;2023-02-11T00:28:06;27.13;;;12.30;;
76069;SDS011;64768;51.738;5.852;2023-02-11T00:37:34;20.90;;;12.48;;
76069;SDS011;64768;51.738;5.852;2023-02-11T00:40:37;12.57;;;6.22;;
76069;SDS011;64768;51.738;5.852;2023-02-11T00:43:47;22.48;;;11.02;;
76069;SDS011;64768;51.738;5.852;2023-02-11T00:46:17;13.93;;;7.68;;
76069;SDS011;64768;51.738;5.852;2023-02-11T00:49:06;22.15;;;10.15;;
76069;SDS011;64768;51.738;5.852;2023-02-11T00:52:08;14.77;;;8.63;;
76069;SDS011;64768;51.738;5.852;2023-02-11T00:55:26;13.60;;;6.50;;
76069;SDS011;64768;51.738;5.852;2023-02-11T00:58:32;16.50;;;8.10;;
76069;SDS011;64768;51.738;5.852;2023-02-11T01:01:29;27.08;;;12.18;;
76069;SDS011;64768;51.738;5.852;2023-02-11T01:10:58;18.65;;;9.25;;
76069;SDS011;64768;51.738;5.852;2023-02-11T01:13:48;20.27;;;9.45;;
76069;SDS011;64768;51.738;5.852;2023-02-11T01:17:03;9.45;;;6.13;;
76069;SDS011;64768;51.738;5.852;2023-02-11T01:35:58;20.05;;;9.63;;
76069;SDS011;64768;51.738;5.852;2023-02-11T01:41:47;9.38;;;6.00;;
76069;SDS011;64768;51.738;5.852;2023-02-11T01:44:26;11.05;;;5.80;;
76069;SDS011;64768;51.738;5.852;2023-02-11T01:47:26;10.70;;;5.97;;
76069;SDS011;64768;51.738;5.852;2023-02-11T01:50:02;19.75;;;9.18;;
76069;SDS011;64768;51.738;5.852;2023-02-11T01:52:52;16.77;;;8.32;;
76069;SDS011;64768;51.738;5.852;2023-02-11T01:56:24;18.80;;;8.93;;
76069;SDS011;64768;51.738;5.852;2023-02-11T01:59:31;16.13;;;6.43;;
76069;SDS011;64768;51.738;5.852;2023-02-11T02:02:36;13.98;;;6.88;;
76069;SDS011;64768;51.738;5.852;2023-02-11T02:05:47;20.67;;;8.05;;
76069;SDS011;64768;51.738;5.852;2023-02-11T02:09:13;16.98;;;7.38;;
76069;SDS011;64768;51.738;5.852;2023-02-11T02:15:41;24.33;;;8.88;;
76069;SDS011;64768;51.738;5.852;2023-02-11T02:18:44;12.23;;;4.97;;
76069;SDS011;64768;51.738;5.852;2023-02-11T02:41:31;4.97;;;2.88;;
76069;SDS011;64768;51.738;5.852;2023-02-11T02:44:47;13.70;;;6.97;;
76069;SDS011;64768;51.738;5.852;2023-02-11T03:00:36;10.20;;;6.35;;
76069;SDS011;64768;51.738;5.852;2023-02-11T03:10:42;9.13;;;4.28;;
76069;SDS011;64768;51.738;5.852;2023-02-11T03:13:50;16.40;;;6.68;;
76069;SDS011;64768;51.738;5.852;2023-02-11T03:16:56;13.75;;;4.88;;
76069;SDS011;64768;51.738;5.852;2023-02-11T03:23:05;18.73;;;6.50;;
76069;SDS011;64768;51.738;5.852;2023-02-11T03:26:10;9.00;;;3.45;;
76069;SDS011;64768;51.738;5.852;2023-02-11T03:29:56;7.20;;;4.35;;
76069;SDS011;64768;51.738;5.852;2023-02-11T03:32:42;14.07;;;6.43;;
76069;SDS011;64768;51.738;5.852;2023-02-11T03:36:16;19.00;;;8.65;;
76069;SDS011;64768;51.738;5.852;2023-02-11T03:38:59;20.30;;;7.20;;
76069;SDS011;64768;51.738;5.852;2023-02-11T03:42:07;21.77;;;8.82;;
76069;SDS011;64768;51.738;5.852;2023-02-11T03:45:02;6.63;;;3.10;;
76069;SDS011;64768;51.738;5.852;2023-02-11T03:47:58;12.52;;;5.30;;
76069;SDS011;64768;51.738;5.852;2023-02-11T03:51:14;10.45;;;4.28;;
76069;SDS011;64768;51.738;5.852;2023-02-11T03:54:07;15.88;;;8.75;;
76069;SDS011;64768;51.738;5.852;2023-02-11T03:57:08;7.53;;;3.95;;
76069;SDS011;64768;51.738;5.852;2023-02-11T04:00:10;20.02;;;9.15;;
76069;SDS011;64768;51.738;5.852;2023-02-11T04:09:42;12.18;;;6.68;;
76069;SDS011;64768;51.738;5.852;2023-02-11T04:25:26;19.77;;;8.52;;
76069;SDS011;64768;51.738;5.852;2023-02-11T04:28:19;20.25;;;8.50;;
76069;SDS011;64768;51.738;5.852;2023-02-11T04:31:23;23.98;;;3.95;;
76069;SDS011;64768;51.738;5.852;2023-02-11T04:34:29;8.30;;;4.32;;
76069;SDS011;64768;51.738;5.852;2023-02-11T04:37:10;12.45;;;5.30;;
76069;SDS011;64768;51.738;5.852;2023-02-11T04:46:20;15.27;;;5.53;;
76069;SDS011;64768;51.738;5.852;2023-02-11T04:48:55;16.80;;;7.78;;
76069;SDS011;64768;51.738;5.852;2023-02-11T04:51:30;8.70;;;5.07;;
76069;SDS011;64768;51.738;5.852;2023-02-11T04:54:11;18.55;;;8.77;;
76069;SDS011;64768;51.738;5.852;2023-02-11T04:56:55;16.40;;;7.63;;
76069;SDS011;64768;51.738;5.852;2023-02-11T04:59:41;5.97;;;3.67;;
76069;SDS011;64768;51.738;5.852;2023-02-11T05:05:36;12.95;;;5.90;;
76069;SDS011;64768;51.738;5.852;2023-02-11T05:08:21;15.75;;;7.55;;
76069;SDS011;64768;51.738;5.852;2023-02-11T05:11:05;12.40;;;7.03;;
76069;SDS011;64768;51.738;5.852;2023-02-11T05:13:47;20.33;;;7.63;;
76069;SDS011;64768;51.738;5.852;2023-02-11T05:16:20;17.52;;;8.30;;
76069;SDS011;64768;51.738;5.852;2023-02-11T05:19:03;7.05;;;4.70;;
76069;SDS011;64768;51.738;5.852;2023-02-11T05:21:39;20.13;;;10.38;;
76069;SDS011;64768;51.738;5.852;2023-02-11T05:24:15;14.63;;;7.38;;
76069;SDS011;64768;51.738;5.852;2023-02-11T05:26:48;11.60;;;5.78;;
76069;SDS011;64768;51.738;5.852;2023-02-11T05:29:30;9.98;;;5.45;;
76069;SDS011;64768;51.738;5.852;2023-02-11T05:32:08;16.90;;;8.88;;
76069;SDS011;64768;51.738;5.852;2023-02-11T05:34:48;6.28;;;3.80;;
76069;SDS011;64768;51.738;5.852;2023-02-11T05:37:47;9.82;;;5.22;;
76069;SDS011;64768;51.738;5.852;2023-02-11T05:40:54;18.83;;;7.05;;
76069;SDS011;64768;51.738;5.852;2023-02-11T05:43:42;14.32;;;6.88;;
76069;SDS011;64768;51.738;5.852;2023-02-11T05:47:01;19.13;;;9.32;;
76069;SDS011;64768;51.738;5.852;2023-02-11T05:52:53;26.02;;;10.27;;
76069;SDS011;64768;51.738;5.852;2023-02-11T05:56:00;21.25;;;9.88;;
76069;SDS011;64768;51.738;5.852;2023-02-11T05:58:36;20.20;;;10.45;;
76069;SDS011;64768;51.738;5.852;2023-02-11T06:01:09;20.40;;;8.68;;
76069;SDS011;64768;51.738;5.852;2023-02-11T06:03:40;23.63;;;10.95;;
76069;SDS011;64768;51.738;5.852;2023-02-11T06:16:04;12.43;;;6.85;;
76069;SDS011;64768;51.738;5.852;2023-02-11T06:18:47;24.48;;;11.15;;
76069;SDS011;64768;51.738;5.852;2023-02-11T06:21:34;13.93;;;7.40;;
76069;SDS011;64768;51.738;5.852;2023-02-11T06:24:21;26.52;;;10.25;;
76069;SDS011;64768;51.738;5.852;2023-02-11T06:26:58;20.38;;;9.55;;
76069;SDS011;64768;51.738;5.852;2023-02-11T06:29:33;12.60;;;6.85;;
76069;SDS011;64768;51.738;5.852;2023-02-11T06:32:34;15.43;;;6.05;;
76069;SDS011;64768;51.738;5.852;2023-02-11T06:36:24;4.45;;;3.17;;
76069;SDS011;64768;51.738;5.852;2023-02-11T06:38:35;24.85;;;9.88;;
76069;SDS011;64768;51.738;5.852;2023-02-11T06:41:13;17.33;;;9.65;;
76069;SDS011;64768;51.738;5.852;2023-02-11T06:43:53;20.55;;;9.85;;
76069;SDS011;64768;51.738;5.852;2023-02-11T06:46:38;6.50;;;4.35;;
76069;SDS011;64768;51.738;5.852;2023-02-11T06:52:47;19.63;;;9.00;;
76069;SDS011;64768;51.738;5.852;2023-02-11T06:55:26;14.88;;;6.10;;
76069;SDS011;64768;51.738;5.852;2023-02-11T06:58:01;19.08;;;10.20;;
76069;SDS011;64768;51.738;5.852;2023-02-11T07:00:44;24.35;;;10.43;;
76069;SDS011;64768;51.738;5.852;2023-02-11T07:03:16;11.90;;;6.47;;
76069;SDS011;64768;51.738;5.852;2023-02-11T07:05:53;21.10;;;8.35;;
76069;SDS011;64768;51.738;5.852;2023-02-11T07:08:27;13.02;;;6.43;;
76069;SDS011;64768;51.738;5.852;2023-02-11T07:11:07;7.57;;;2.72;;
76069;SDS011;64768;51.738;5.852;2023-02-11T07:13:49;10.88;;;6.43;;
76069;SDS011;64768;51.738;5.852;2023-02-11T07:16:22;14.27;;;7.43;;
76069;SDS011;64768;51.738;5.852;2023-02-11T07:18:59;18.35;;;9.02;;
76069;SDS011;64768;51.738;5.852;2023-02-11T07:21:35;10.48;;;5.03;;
76069;SDS011;64768;51.738;5.852;2023-02-11T07:24:15;25.58;;;9.82;;
76069;SDS011;64768;51.738;5.852;2023-02-11T07:26:54;18.10;;;8.35;;
76069;SDS011;64768;51.738;5.852;2023-02-11T07:29:24;23.05;;;12.05;;
76069;SDS011;64768;51.738;5.852;2023-02-11T07:31:54;9.02;;;5.25;;
76069;SDS011;64768;51.738;5.852;2023-02-11T07:34:24;27.50;;;13.63;;
76069;SDS011;64768;51.738;5.852;2023-02-11T07:36:56;21.98;;;11.18;;
76069;SDS011;64768;51.738;5.852;2023-02-11T07:39:28;9.75;;;6.05;;
76069;SDS011;64768;51.738;5.852;2023-02-11T07:42:00;19.52;;;9.98;;
76069;SDS011;64768;51.738;5.852;2023-02-11T07:44:31;20.10;;;10.35;;
76069;SDS011;64768;51.738;5.852;2023-02-11T07:47:01;15.55;;;8.75;;
76069;SDS011;64768;51.738;5.852;2023-02-11T07:49:31;17.23;;;8.00;;
76069;SDS011;64768;51.738;5.852;2023-02-11T07:52:03;14.07;;;7.80;;
76069;SDS011;64768;51.738;5.852;2023-02-11T07:54:38;17.38;;;7.15;;
76069;SDS011;64768;51.738;5.852;2023-02-11T07:57:08;19.05;;;8.60;;
76069;SDS011;64768;51.738;5.852;2023-02-11T07:59:39;27.23;;;12.73;;
76069;SDS011;64768;51.738;5.852;2023-02-11T08:02:08;36.05;;;15.02;;
76069;SDS011;64768;51.738;5.852;2023-02-11T08:04:40;32.72;;;15.57;;
76069;SDS011;64768;51.738;5.852;2023-02-11T08:07:12;20.52;;;11.07;;
76069;SDS011;64768;51.738;5.852;2023-02-11T08:09:43;32.15;;;15.35;;
76069;SDS011;64768;51.738;5.852;2023-02-11T08:12:18;18.55;;;9.50;;
76069;SDS011;64768;51.738;5.852;2023-02-11T08:14:48;36.60;;;15.68;;
76069;SDS011;64768;51.738;5.852;2023-02-11T08:17:20;25.23;;;12.65;;
76069;SDS011;64768;51.738;5.852;2023-02-11T08:19:54;32.35;;;14.45;;
76069;SDS011;64768;51.738;5.852;2023-02-11T08:22:30;16.08;;;8.38;;
76069;SDS011;64768;51.738;5.852;2023-02-11T08:25:01;24.45;;;11.60;;
76069;SDS011;64768;51.738;5.852;2023-02-11T08:27:30;21.73;;;10.98;;
76069;SDS011;64768;51.738;5.852;2023-02-11T08:30:06;31.77;;;14.23;;
76069;SDS011;64768;51.738;5.852;2023-02-11T08:32:38;25.27;;;13.57;;
76069;SDS011;64768;51.738;5.852;2023-02-11T08:35:12;20.92;;;10.57;;
76069;SDS011;64768;51.738;5.852;2023-02-11T08:37:46;24.80;;;10.88;;
76069;SDS011;64768;51.738;5.852;2023-02-11T08:40:18;13.27;;;6.95;;
76069;SDS011;64768;51.738;5.852;2023-02-11T08:42:58;31.13;;;16.20;;
76069;SDS011;64768;51.738;5.852;2023-02-11T08:45:28;17.55;;;9.10;;
76069;SDS011;64768;51.738;5.852;2023-02-11T08:48:07;22.48;;;13.20;;
76069;SDS011;64768;51.738;5.852;2023-02-11T08:50:39;24.20;;;11.35;;
76069;SDS011;64768;51.738;5.852;2023-02-11T08:53:13;30.00;;;13.57;;
76069;SDS011;64768;51.738;5.852;2023-02-11T08:55:49;23.55;;;9.20;;
76069;SDS011;64768;51.738;5.852;2023-02-11T08:58:21;23.10;;;10.68;;
76069;SDS011;64768;51.738;5.852;2023-02-11T09:00:50;21.45;;;10.23;;
76069;SDS011;64768;51.738;5.852;2023-02-11T09:03:19;26.92;;;12.52;;
76069;SDS011;64768;51.738;5.852;2023-02-11T09:08:22;24.67;;;10.85;;
76069;SDS011;64768;51.738;5.852;2023-02-11T09:10:54;31.88;;;13.70;;
76069;SDS011;64768;51.738;5.852;2023-02-11T09:13:28;26.92;;;13.20;;
76069;SDS011;64768;51.738;5.852;2023-02-11T09:16:06;33.40;;;15.00;;
76069;SDS011;64768;51.738;5.852;2023-02-11T09:18:35;20.65;;;10.25;;
76069;SDS011;64768;51.738;5.852;2023-02-11T09:21:06;20.70;;;10.07;;
76069;SDS011;64768;51.738;5.852;2023-02-11T09:23:40;25.10;;;10.77;;
76069;SDS011;64768;51.738;5.852;2023-02-11T09:26:12;33.78;;;15.35;;
76069;SDS011;64768;51.738;5.852;2023-02-11T09:28:44;30.42;;;13.95;;
76069;SDS011;64768;51.738;5.852;2023-02-11T09:31:14;30.25;;;14.10;;
76069;SDS011;64768;51.738;5.852;2023-02-11T09:33:48;34.63;;;15.38;;
76069;SDS011;64768;51.738;5.852;2023-02-11T09:36:19;21.15;;;9.43;;
76069;SDS011;64768;51.738;5.852;2023-02-11T09:38:52;19.25;;;9.85;;
76069;SDS011;64768;51.738;5.852;2023-02-11T09:44:22;19.08;;;8.57;;
76069;SDS011;64768;51.738;5.852;2023-02-11T09:46:54;22.05;;;11.25;;
76069;SDS011;64768;51.738;5.852;2023-02-11T09:49:29;35.05;;;14.98;;
76069;SDS011;64768;51.738;5.852;2023-02-11T09:52:07;18.65;;;10.13;;
76069;SDS011;64768;51.738;5.852;2023-02-11T09:54:48;27.95;;;13.77;;
76069;SDS011;64768;51.738;5.852;2023-02-11T09:57:22;45.08;;;19.90;;
76069;SDS011;64768;51.738;5.852;2023-02-11T09:59:54;27.85;;;12.75;;
76069;SDS011;64768;51.738;5.852;2023-02-11T10:02:25;35.63;;;14.18;;
76069;SDS011;64768;51.738;5.852;2023-02-11T10:05:17;18.67;;;8.45;;
76069;SDS011;64768;51.738;5.852;2023-02-11T10:07:59;14.88;;;7.05;;
76069;SDS011;64768;51.738;5.852;2023-02-11T10:10:42;47.22;;;20.45;;
76069;SDS011;64768;51.738;5.852;2023-02-11T10:13:22;36.03;;;16.77;;
76069;SDS011;64768;51.738;5.852;2023-02-11T10:16:03;46.97;;;22.27;;
76069;SDS011;64768;51.738;5.852;2023-02-11T10:21:45;38.28;;;17.67;;
76069;SDS011;64768;51.738;5.852;2023-02-11T10:24:20;41.72;;;21.10;;
76069;SDS011;64768;51.738;5.852;2023-02-11T10:26:55;44.28;;;22.33;;
76069;SDS011;64768;51.738;5.852;2023-02-11T10:29:30;45.63;;;23.05;;
76069;SDS011;64768;51.738;5.852;2023-02-11T10:32:05;53.47;;;22.88;;
76069;SDS011;64768;51.738;5.852;2023-02-11T10:34:43;43.50;;;19.75;;
76069;SDS011;64768;51.738;5.852;2023-02-11T10:37:12;51.45;;;23.08;;
76069;SDS011;64768;51.738;5.852;2023-02-11T10:39:43;42.60;;;19.25;;
76069;SDS011;64768;51.738;5.852;2023-02-11T10:42:17;43.95;;;19.80;;
76069;SDS011;64768;51.738;5.852;2023-02-11T10:44:49;35.35;;;17.90;;
76069;SDS011;64768;51.738;5.852;2023-02-11T10:47:26;33.50;;;16.23;;
76069;SDS011;64768;51.738;5.852;2023-02-11T10:49:57;45.67;;;22.27;;
76069;SDS011;64768;51.738;5.852;2023-02-11T10:52:28;31.73;;;12.80;;
76069;SDS011;64768;51.738;5.852;2023-02-11T10:55:02;34.55;;;19.17;;
76069;SDS011;64768;51.738;5.852;2023-02-11T10:57:37;25.30;;;11.65;;
76069;SDS011;64768;51.738;5.852;2023-02-11T11:03:06;22.15;;;12.02;;
76069;SDS011;64768;51.738;5.852;2023-02-11T11:05:50;41.08;;;18.55;;
76069;SDS011;64768;51.738;5.852;2023-02-11T11:08:23;23.95;;;11.07;;
76069;SDS011;64768;51.738;5.852;2023-02-11T11:11:07;19.63;;;9.68;;
76069;SDS011;64768;51.738;5.852;2023-02-11T11:13:42;43.00;;;17.95;;
76069;SDS011;64768;51.738;5.852;2023-02-11T11:16:24;35.40;;;18.50;;
76069;SDS011;64768;51.738;5.852;2023-02-11T11:21:50;31.83;;;17.95;;
76069;SDS011;64768;51.738;5.852;2023-02-11T11:24:20;35.13;;;17.63;;
76069;SDS011;64768;51.738;5.852;2023-02-11T11:26:53;37.65;;;18.20;;
76069;SDS011;64768;51.738;5.852;2023-02-11T11:29:29;13.77;;;8.93;;
76069;SDS011;64768;51.738;5.852;2023-02-11T11:32:03;26.67;;;13.75;;
76069;SDS011;64768;51.738;5.852;2023-02-11T11:34:40;21.98;;;13.02;;
76069;SDS011;64768;51.738;5.852;2023-02-11T11:37:12;37.60;;;17.48;;
76069;SDS011;64768;51.738;5.852;2023-02-11T11:39:50;20.15;;;10.75;;
76069;SDS011;64768;51.738;5.852;2023-02-11T11:42:32;18.58;;;9.43;;
76069;SDS011;64768;51.738;5.852;2023-02-11T11:45:22;18.27;;;8.75;;
76069;SDS011;64768;51.738;5.852;2023-02-11T11:47:57;19.27;;;10.75;;
76069;SDS011;64768;51.738;5.852;2023-02-11T11:50:46;27.85;;;15.75;;
76069;SDS011;64768;51.738;5.852;2023-02-11T11:53:28;23.80;;;13.88;;
76069;SDS011;64768;51.738;5.852;2023-02-11T11:56:03;13.10;;;7.20;;
76069;SDS011;64768;51.738;5.852;2023-02-11T11:58:59;16.02;;;9.98;;
76069;SDS011;64768;51.738;5.852;2023-02-11T12:01:46;21.38;;;12.50;;
76069;SDS011;64768;51.738;5.852;2023-02-11T12:04:44;24.80;;;11.35;;
76069;SDS011;64768;51.738;5.852;2023-02-11T12:07:40;27.00;;;15.60;;
76069;SDS011;64768;51.738;5.852;2023-02-11T12:10:33;26.30;;;14.45;;
76069;SDS011;64768;51.738;5.852;2023-02-11T12:13:24;16.48;;;9.10;;
76069;SDS011;64768;51.738;5.852;2023-02-11T12:16:13;17.67;;;10.15;;
76069;SDS011;64768;51.738;5.852;2023-02-11T12:22:20;14.80;;;7.68;;
76069;SDS011;64768;51.738;5.852;2023-02-11T12:25:08;20.40;;;11.95;;
76069;SDS011;64768;51.738;5.852;2023-02-11T12:27:52;9.60;;;5.07;;
76069;SDS011;64768;51.738;5.852;2023-02-11T12:30:44;19.15;;;9.75;;
76069;SDS011;64768;51.738;5.852;2023-02-11T12:33:38;16.83;;;9.05;;
76069;SDS011;64768;51.738;5.852;2023-02-11T12:39:48;16.23;;;8.52;;
76069;SDS011;64768;51.738;5.852;2023-02-11T12:42:25;13.13;;;6.80;;
76069;SDS011;64768;51.738;5.852;2023-02-11T12:48:20;17.60;;;8.38;;
76069;SDS011;64768;51.738;5.852;2023-02-11T12:51:12;9.27;;;5.25;;
76069;SDS011;64768;51.738;5.852;2023-02-11T12:53:57;18.70;;;10.48;;
76069;SDS011;64768;51.738;5.852;2023-02-11T13:06:10;19.60;;;9.98;;
76069;SDS011;64768;51.738;5.852;2023-02-11T13:12:22;20.13;;;8.48;;
76069;SDS011;64768;51.738;5.852;2023-02-11T13:16:04;18.73;;;10.77;;
76069;SDS011;64768;51.738;5.852;2023-02-11T13:21:50;21.77;;;12.73;;
76069;SDS011;64768;51.738;5.852;2023-02-11T13:24:58;19.75;;;11.02;;
76069;SDS011;64768;51.738;5.852;2023-02-11T13:27:54;14.13;;;7.07;;
76069;SDS011;64768;51.738;5.852;2023-02-11T13:31:07;16.67;;;9.15;;
76069;SDS011;64768;51.738;5.852;2023-02-11T13:34:01;14.95;;;7.78;;
76069;SDS011;64768;51.738;5.852;2023-02-11T13:36:57;15.52;;;8.77;;
76069;SDS011;64768;51.738;5.852;2023-02-11T13:39:46;16.90;;;9.30;;
76069;SDS011;64768;51.738;5.852;2023-02-11T13:46:06;13.35;;;6.13;;
76069;SDS011;64768;51.738;5.852;2023-02-11T13:48:48;10.18;;;5.88;;
76069;SDS011;64768;51.738;5.852;2023-02-11T13:55:04;13.20;;;7.30;;
76069;SDS011;64768;51.738;5.852;2023-02-11T13:57:42;16.15;;;10.43;;
76069;SDS011;64768;51.738;5.852;2023-02-11T14:03:23;10.73;;;4.93;;
76069;SDS011;64768;51.738;5.852;2023-02-11T14:06:10;12.38;;;6.25;;
76069;SDS011;64768;51.738;5.852;2023-02-11T14:11:53;17.70;;;10.98;;
76069;SDS011;64768;51.738;5.852;2023-02-11T14:17:29;13.23;;;8.70;;
76069;SDS011;64768;51.738;5.852;2023-02-11T14:20:29;13.40;;;5.78;;
76069;SDS011;64768;51.738;5.852;2023-02-11T14:23:19;10.93;;;6.72;;
76069;SDS011;64768;51.738;5.852;2023-02-11T14:26:00;10.20;;;6.30;;
76069;SDS011;64768;51.738;5.852;2023-02-11T14:28:43;13.50;;;5.90;;
76069;SDS011;64768;51.738;5.852;2023-02-11T14:31:16;8.63;;;4.57;;
76069;SDS011;64768;51.738;5.852;2023-02-11T14:33:55;13.25;;;8.15;;
76069;SDS011;64768;51.738;5.852;2023-02-11T14:37:00;14.77;;;8.10;;
76069;SDS011;64768;51.738;5.852;2023-02-11T14:39:42;8.57;;;5.85;;
76069;SDS011;64768;51.738;5.852;2023-02-11T14:42:26;10.48;;;5.25;;
76069;SDS011;64768;51.738;5.852;2023-02-11T14:44:57;7.93;;;4.63;;
76069;SDS011;64768;51.738;5.852;2023-02-11T14:47:33;15.68;;;7.53;;
76069;SDS011;64768;51.738;5.852;2023-02-11T14:50:13;13.70;;;6.72;;
76069;SDS011;64768;51.738;5.852;2023-02-11T14:52:53;17.25;;;9.77;;
76069;SDS011;64768;51.738;5.852;2023-02-11T14:58:28;12.75;;;6.88;;
76069;SDS011;64768;51.738;5.852;2023-02-11T15:01:01;11.75;;;6.78;;
76069;SDS011;64768;51.738;5.852;2023-02-11T15:03:33;6.97;;;3.85;;
76069;SDS011;64768;51.738;5.852;2023-02-11T15:06:12;12.40;;;7.07;;
76069;SDS011;64768;51.738;5.852;2023-02-11T15:08:48;8.55;;;3.75;;
76069;SDS011;64768;51.738;5.852;2023-02-11T15:11:21;10.65;;;6.32;;
76069;SDS011;64768;51.738;5.852;2023-02-11T15:13:52;5.72;;;3.63;;
76069;SDS011;64768;51.738;5.852;2023-02-11T15:16:24;19.33;;;7.40;;
76069;SDS011;64768;51.738;5.852;2023-02-11T15:18:56;12.13;;;6.45;;
76069;SDS011;64768;51.738;5.852;2023-02-11T15:21:29;10.43;;;5.55;;
76069;SDS011;64768;51.738;5.852;2023-02-11T15:24:03;13.40;;;6.95;;
76069;SDS011;64768;51.738;5.852;2023-02-11T15:26:54;9.45;;;5.40;;
76069;SDS011;64768;51.738;5.852;2023-02-11T15:32:02;11.10;;;7.22;;
76069;SDS011;64768;51.738;5.852;2023-02-11T15:34:39;9.82;;;5.57;;
76069;SDS011;64768;51.738;5.852;2023-02-11T15:37:11;13.43;;;6.80;;
76069;SDS011;64768;51.738;5.852;2023-02-11T15:39:54;14.95;;;6.22;;
76069;SDS011;64768;51.738;5.852;2023-02-11T15:42:34;14.18;;;7.13;;
76069;SDS011;64768;51.738;5.852;2023-02-11T15:45:08;11.88;;;6.30;;
76069;SDS011;64768;51.738;5.852;2023-02-11T15:47:39;18.13;;;8.82;;
76069;SDS011;64768;51.738;5.852;2023-02-11T15:50:18;16.75;;;9.20;;
76069;SDS011;64768;51.738;5.852;2023-02-11T15:52:51;7.72;;;4.68;;
76069;SDS011;64768;51.738;5.852;2023-02-11T15:55:25;16.02;;;7.90;;
76069;SDS011;64768;51.738;5.852;2023-02-11T15:57:56;13.30;;;7.60;;
76069;SDS011;64768;51.738;5.852;2023-02-11T16:00:30;16.95;;;8.50;;
76069;SDS011;64768;51.738;5.852;2023-02-11T16:03:04;11.77;;;4.68;;
76069;SDS011;64768;51.738;5.852;2023-02-11T16:05:34;12.23;;;6.20;;
76069;SDS011;64768;51.738;5.852;2023-02-11T16:08:11;16.30;;;8.80;;
76069;SDS011;64768;51.738;5.852;2023-02-11T16:10:58;18.77;;;10.13;;
76069;SDS011;64768;51.738;5.852;2023-02-11T16:13:42;18.15;;;9.00;;
76069;SDS011;64768;51.738;5.852;2023-02-11T16:16:15;9.93;;;5.75;;
76069;SDS011;64768;51.738;5.852;2023-02-11T16:18:47;17.40;;;9.73;;
76069;SDS011;64768;51.738;5.852;2023-02-11T16:21:23;12.75;;;6.90;;
76069;SDS011;64768;51.738;5.852;2023-02-11T16:23:57;9.82;;;5.35;;
76069;SDS011;64768;51.738;5.852;2023-02-11T16:26:31;15.75;;;8.68;;
76069;SDS011;64768;51.738;5.852;2023-02-11T16:29:12;10.75;;;6.97;;
76069;SDS011;64768;51.738;5.852;2023-02-11T16:31:44;19.77;;;10.40;;
76069;SDS011;64768;51.738;5.852;2023-02-11T16:34:21;22.73;;;11.70;;
76069;SDS011;64768;51.738;5.852;2023-02-11T16:37:01;13.65;;;6.97;;
76069;SDS011;64768;51.738;5.852;2023-02-11T16:39:38;21.80;;;10.70;;
76069;SDS011;64768;51.738;5.852;2023-02-11T16:42:10;18.98;;;9.48;;
76069;SDS011;64768;51.738;5.852;2023-02-11T16:44:39;21.83;;;11.30;;
76069;SDS011;64768;51.738;5.852;2023-02-11T16:49:52;21.02;;;10.43;;
76069;SDS011;64768;51.738;5.852;2023-02-11T16:52:23;22.38;;;11.70;;
76069;SDS011;64768;51.738;5.852;2023-02-11T16:54:55;20.15;;;9.98;;
76069;SDS011;64768;51.738;5.852;2023-02-11T16:57:29;18.13;;;9.60;;
76069;SDS011;64768;51.738;5.852;2023-02-11T17:00:01;19.73;;;10.75;;
76069;SDS011;64768;51.738;5.852;2023-02-11T17:02:32;20.05;;;10.27;;
76069;SDS011;64768;51.738;5.852;2023-02-11T17:05:04;16.25;;;10.10;;
76069;SDS011;64768;51.738;5.852;2023-02-11T17:07:35;20.23;;;11.02;;
76069;SDS011;64768;51.738;5.852;2023-02-11T17:10:11;19.13;;;11.10;;
76069;SDS011;64768;51.738;5.852;2023-02-11T17:12:45;24.40;;;11.95;;
76069;SDS011;64768;51.738;5.852;2023-02-11T17:15:14;21.58;;;11.32;;
76069;SDS011;64768;51.738;5.852;2023-02-11T17:17:45;20.50;;;10.35;;
76069;SDS011;64768;51.738;5.852;2023-02-11T17:20:17;24.30;;;11.85;;
76069;SDS011;64768;51.738;5.852;2023-02-11T17:22:51;28.30;;;12.38;;
76069;SDS011;64768;51.738;5.852;2023-02-11T17:25:20;23.98;;;12.70;;
76069;SDS011;64768;51.738;5.852;2023-02-11T17:27:52;27.38;;;13.07;;
76069;SDS011;64768;51.738;5.852;2023-02-11T17:30:35;24.23;;;13.57;;
76069;SDS011;64768;51.738;5.852;2023-02-11T17:33:07;26.75;;;12.77;;
76069;SDS011;64768;51.738;5.852;2023-02-11T17:35:42;23.75;;;13.07;;
76069;SDS011;64768;51.738;5.852;2023-02-11T17:38:11;26.63;;;11.52;;
76069;SDS011;64768;51.738;5.852;2023-02-11T17:40:40;22.05;;;11.85;;
76069;SDS011;64768;51.738;5.852;2023-02-11T17:43:12;25.52;;;12.88;;
76069;SDS011;64768;51.738;5.852;2023-02-11T17:45:48;23.67;;;12.90;;
76069;SDS011;64768;51.738;5.852;2023-02-11T17:48:48;22.70;;;12.10;;
76069;SDS011;64768;51.738;5.852;2023-02-11T17:51:21;23.20;;;12.48;;
76069;SDS011;64768;51.738;5.852;2023-02-11T17:53:58;28.45;;;12.55;;
76069;SDS011;64768;51.738;5.852;2023-02-11T18:00:15;23.30;;;12.30;;
76069;SDS011;64768;51.738;5.852;2023-02-11T18:02:50;24.67;;;12.25;;
76069;SDS011;64768;51.738;5.852;2023-02-11T18:05:27;22.58;;;11.35;;
76069;SDS011;64768;51.738;5.852;2023-02-11T18:07:58;22.25;;;11.52;;
76069;SDS011;64768;51.738;5.852;2023-02-11T18:10:30;21.98;;;11.77;;
76069;SDS011;64768;51.738;5.852;2023-02-11T18:13:02;21.80;;;12.23;;
76069;SDS011;64768;51.738;5.852;2023-02-11T18:15:35;21.40;;;11.82;;
76069;SDS011;64768;51.738;5.852;2023-02-11T18:18:04;26.73;;;13.23;;
76069;SDS011;64768;51.738;5.852;2023-02-11T18:20:35;27.98;;;13.88;;
76069;SDS011;64768;51.738;5.852;2023-02-11T18:23:05;31.27;;;14.55;;
76069;SDS011;64768;51.738;5.852;2023-02-11T18:28:10;25.45;;;13.48;;
76069;SDS011;64768;51.738;5.852;2023-02-11T18:30:41;25.38;;;12.30;;
76069;SDS011;64768;51.738;5.852;2023-02-11T18:33:13;24.77;;;12.50;;
76069;SDS011;64768;51.738;5.852;2023-02-11T18:35:45;29.15;;;13.35;;
76069;SDS011;64768;51.738;5.852;2023-02-11T18:38:14;23.63;;;12.80;;
76069;SDS011;64768;51.738;5.852;2023-02-11T18:40:46;29.92;;;14.65;;
76069;SDS011;64768;51.738;5.852;2023-02-11T18:43:22;27.40;;;14.30;;
76069;SDS011;64768;51.738;5.852;2023-02-11T18:46:01;28.08;;;13.90;;
76069;SDS011;64768;51.738;5.852;2023-02-11T18:48:36;29.92;;;14.40;;
76069;SDS011;64768;51.738;5.852;2023-02-11T18:51:12;29.30;;;14.15;;
76069;SDS011;64768;51.738;5.852;2023-02-11T18:53:47;27.00;;;13.68;;
76069;SDS011;64768;51.738;5.852;2023-02-11T18:56:17;29.30;;;14.90;;
76069;SDS011;64768;51.738;5.852;2023-02-11T18:58:48;26.73;;;13.35;;
76069;SDS011;64768;51.738;5.852;2023-02-11T19:01:24;27.50;;;14.27;;
76069;SDS011;64768;51.738;5.852;2023-02-11T19:03:58;27.60;;;12.10;;
76069;SDS011;64768;51.738;5.852;2023-02-11T19:06:43;31.58;;;14.60;;
76069;SDS011;64768;51.738;5.852;2023-02-11T19:09:19;29.15;;;13.57;;
76069;SDS011;64768;51.738;5.852;2023-02-11T19:11:49;26.05;;;13.82;;
76069;SDS011;64768;51.738;5.852;2023-02-11T19:14:22;26.70;;;12.60;;
76069;SDS011;64768;51.738;5.852;2023-02-11T19:16:57;28.50;;;12.93;;
76069;SDS011;64768;51.738;5.852;2023-02-11T19:19:33;24.30;;;13.25;;
76069;SDS011;64768;51.738;5.852;2023-02-11T19:22:03;25.02;;;12.40;;
76069;SDS011;64768;51.738;5.852;2023-02-11T19:24:35;24.58;;;11.65;;